x

Virginia Beach 64 Nm East Of Virginia Beach, Va (44014) Wave Buoy

12:50am - Sun 22nd Oct 2017 All times are EDT. -4 hours from GMT.

  • Sig Wave height 2.6ft
  • Swell Direction
  • Peak Period 8s
  • Average Period 7s
  • Wind
    2mph, 4mph gusts
  • Sea Temp 69°f
  • Air Temp 68°f
  • Sea Pressure 1028.1mb
  • Virginia Beach 64 Nm East Of Virginia Beach, Va
  • Virginia Beach 64 Nm East Of Virginia Beach, Va

More Historic Weather Station data

Upgrade to MSW Pro to gain access to the past 30 days of data for over 8000 Wavebouys and Weather Stations around the globe.

Join

Comparision Forecast

View Surf forecast
   
Sun 10/22 12:50am 2.5ft 8s 7s 2 4 mph 1028.1mb 69f 68f
Sat 10/21 11:50pm 2.5ft 8s 7s 4 4 mph 1028.4mb 69f 68f
10:50pm 3ft 9s 7s 4 7 mph 1028.6mb 69f 68f
8:50pm 3ft 8s 7s 4 4 mph 1028.5mb 69f 68f
7:50pm 2.5ft 8s 7s 4 4 mph 1028.4mb 70f 68f
6:50pm 2.5ft 9s 7s 4 7 mph 1028.2mb 70f 68f
5:50pm 2.5ft 9s 6s 7 7 mph 1027.6mb 70f 68f
4:50pm 2.5ft 8s 6s 7 9 mph 1027.2mb 70f 68f
3:50pm 2.5ft 8s 7s 4 7 mph 1027.4mb 70f 68f
2:50pm 2.5ft 8s 6s 7 9 mph 1027.1mb 70f 68f
1:50pm 2.5ft 9s 7s 7 7 mph 1027.4mb 69f 68f
12:50pm 2.5ft 9s 7s 7 7 mph 1027.9mb 69f 68f
11:50am 2.5ft 8s 7s 7 9 mph 1028.1mb 68f 67f
10:50am 2.5ft 8s 7s 7 9 mph 1027.8mb 68f 67f
9:50am 2.5ft 9s 7s 9 9 mph 1027.8mb 67f 67f
8:50am 2.5ft 8s 6s 4 7 mph 1027.1mb 67f 67f
7:50am 2.5ft 8s 7s 4 4 mph 1026.1mb 67f 67f
6:50am 2.5ft 8s 7s 2 2 mph 1025.4mb 67f 66f
5:50am 2.5ft 8s 7s 4 4 mph 1025.2mb 67f 67f
4:50am 2.5ft 8s 7s 2 2 mph 1024.8mb 67f 67f
3:50am 2.5ft 8s 6s 2 2 mph 1024.8mb 67f 66f
2:50am 2.5ft 8s 7s 2 2 mph 1024.8mb 67f 66f
1:50am 2.5ft 9s 7s 2 2 mph 1024.9mb 67f 67f
12:50am 2.5ft 9s 7s 2 2 mph 1024.8mb 67f 67f
Fri 10/20 11:50pm 2.5ft 9s 6s 2 4 mph 1024.7mb 67f 67f
10:50pm 3ft 9s 7s 2 2 mph 1024.4mb 67f 67f
9:50pm 2.5ft 8s 6s 2 2 mph 1023.9mb 67f 67f
8:50pm 2.5ft 8s 6s 4 4 mph 1023.4mb 68f 67f
7:50pm 2.5ft 8s 6s 4 7 mph 1023.2mb 68f 67f
6:50pm 2.5ft 8s 6s 9 9 mph 1022.7mb 68f 67f
5:50pm 2.5ft 9s 6s 9 9 mph 1022.4mb 68f 68f
4:50pm 2.5ft 9s 5s 7 9 mph 1022.2mb 68f 68f
3:50pm 2.5ft 8s 5s 9 11 mph 1022.2mb 68f 68f
2:50pm 3ft 8s 5s 11 11 mph 1022.3mb 68f 68f
1:50pm 3ft 9s 5s 9 11 mph 1022.7mb 68f 68f
12:50pm 3.5ft 9s 5s 13 16 mph 1023.2mb 68f 68f
11:50am 3ft 8s 5s 11 13 mph 1023.6mb 68f 68f
10:50am 3ft 9s 5s 13 16 mph 1023.7mb 68f 67f
9:50am 3ft 9s 5s 11 16 mph 1023.7mb 68f 67f
8:50am 2.5ft 10s 5s 11 13 mph 1023.5mb 67f 68f
7:50am 2.5ft 8s 6s 11 13 mph 1022.9mb 67f 68f
6:50am 3ft 9s 6s 11 11 mph 1022.5mb 67f 68f
5:50am 3ft 9s 6s 9 11 mph 1022.3mb 67f 68f
4:50am 2.5ft 8s 7s 9 11 mph 1022.2mb 67f 68f
3:50am 3ft 9s 7s 7 9 mph 1022.1mb 67f 68f
2:50am 3.5ft 8s 7s 7 7 mph 1022.4mb 68f 68f
1:50am 3.5ft 9s 7s 4 4 mph 1022.7mb 68f 67f
12:50am 3.5ft 9s 7s 4 7 mph 1022.7mb 68f 68f
Thu 10/19 11:50pm 3.5ft 9s 7s 4 7 mph 1022.6mb 68f 68f
10:50pm 3.5ft 9s 7s 4 7 mph 1022.8mb 68f 68f
9:50pm 3ft 8s 7s 4 7 mph 1022.7mb 68f 68f
8:50pm 3ft 9s 7s 4 7 mph 1022.8mb 69f 68f
7:50pm 3.5ft 9s 7s 2 4 mph 1022.8mb 69f 67f
6:50pm 3.5ft 8s 7s 4 4 mph 1022.6mb 70f 68f
5:50pm 3.5ft 8s 7s 2 4 mph 1022.6mb 70f 68f
4:50pm 3ft 10s 7s 4 4 mph 1022.9mb 70f 69f
3:50pm 3.5ft 9s 7s 4 4 mph 1023.4mb 69f 69f
2:50pm 3.5ft 8s 6s 2 4 mph 1023.5mb 69f 68f
1:50pm 3ft 9s 6s 4 4 mph 1024.3mb 69f 68f
12:50pm 3.5ft 10s 6s 7 7 mph 1025.2mb 68f 68f
10:50am 3.5ft 9s 6s 9 11 mph 1025.9mb 67f 68f
9:50am 3.5ft 8s 6s 9 9 mph 1026.1mb 67f 68f
8:50am 3.5ft 8s 6s 9 11 mph 1026mb 67f 68f
7:50am 3.5ft 9s 6s 11 13 mph 1025.6mb 67f 68f
6:50am 3.5ft 8s 6s 11 13 mph 1025.7mb 67f 67f
5:50am 3.5ft 8s 6s 11 11 mph 1025.7mb 67f 67f
4:50am 3.5ft 7s 6s 11 11 mph 1025.6mb 67f 67f
3:50am 3.5ft 10s 6s 11 11 mph 1025.6mb 67f 67f
2:50am 3.5ft 9s 6s 9 11 mph 1026.1mb 67f 67f
1:50am 3.5ft 8s 6s 9 11 mph 1026.4mb 67f 67f
12:50am 3.5ft 8s 6s 11 13 mph 1026.4mb 67f 66f
Wed 10/18 11:50pm 3.5ft 10s 6s 9 11 mph 1027mb 67f 66f
10:50pm 4.5ft 8s 6s 9 11 mph 1027.3mb 67f 66f
9:50pm 3.5ft 9s 6s 9 11 mph 1027.4mb 67f 66f
8:50pm 4ft 9s 6s 9 13 mph 1027.2mb 67f 65f
7:50pm 4ft 9s 6s 11 13 mph 1027.2mb 67f 65f
6:50pm 4ft 9s 6s 9 11 mph 1027.1mb 68f 65f
5:50pm 4.5ft 10s 6s 9 11 mph 1027mb 68f 65f
4:50pm 4ft 9s 6s 9 11 mph 1027.1mb 68f 65f
3:50pm 4ft 9s 6s 11 13 mph 1027.2mb 68f 64f
2:50pm 4.5ft 9s 6s 11 13 mph 1027.8mb 68f 64f
1:50pm 4.5ft 10s 6s 11 13 mph 1028.2mb 67f 64f
12:50pm 5ft 8s 5s 11 13 mph 1028.7mb 67f 64f
11:50am 5ft 8s 5s 13 18 mph 1028.9mb 67f 63f
10:50am 4.5ft 9s 5s 13 18 mph 1028.8mb 67f 63f
9:50am 4ft 10s 5s 13 18 mph 1028.6mb 67f 63f
8:50am 4.5ft 9s 5s 13 18 mph 1028.1mb 67f 63f
7:50am 4.5ft 8s 5s 13 18 mph 1027.5mb 67f 62f
6:50am 4.5ft 8s 5s 13 18 mph 1027mb 67f 62f